85N weather

Hollands International Field
Newfane, New York, United States

Public forecast

Using degrees Fahrenheit for public forecast. Weather courtesy of forecast.io.

Closest aviation weather report (METAR) to Hollands International Field

Closest report is Niagara Falls International Airport, 12.4 nm (22.9 km) SW. Retrieved 2019/10/17 20:53 UTC (51 minutes ago):

KIAG 172053Z 31018G25KT 10SM OVC021 08/04 A2969 RMK AO2 PK WND 31031/2043 SLP061 T00830044 53021

Closest aviation forecast (TAF) to Hollands International Field

Closest forecast is Niagara Falls International Airport, 12.4 nm (22.9 km) SW. Retrieved 2019/10/17 18:22 UTC (3 hours ago):

TAF KIAG 171720Z 1718/1818 32020G30KT P6SM -RA OVC015 FM172000 32019G29KT P6SM VCSH OVC020 FM180100 31015G22KT P6SM VCSH OVC020 FM180400 31014KT P6SM OVC025